Time;durP1;ratioP1;P1;durP2;ratioP2;P2;SDS_P1;SDS_P2;PMS_P1;PMS_P2;Temp;Humidity;BMP_temperature;BMP_pressure;BME280_temperature;BME280_humidity;BME280_pressure;Samples;Min_cycle;Max_cycle;Signal;HPM_P1;HPM_P2
2022/09/14 00:02:11;;;;;;;;;;;17.00;99.90;;;;;;5088167;28;19924;-72
2022/09/14 00:04:40;;;;;;;;;;;17.00;99.90;;;;;;5064472;28;19935;-72
2022/09/14 00:07:09;;;;;;;;;;;16.90;99.90;;;;;;5079550;28;20455;-72
2022/09/14 00:09:36;;;;;;;;;;;16.90;99.90;;;;;;5066049;28;19962;-72
2022/09/14 00:12:03;;;;;;;;;;;16.80;99.90;;;;;;5083264;28;19928;-72
2022/09/14 00:14:29;;;;;;;;;;;16.80;99.90;;;;;;5092970;28;19932;-73
2022/09/14 00:16:56;;;;;;;;;;;16.80;99.90;;;;;;5092126;28;19936;-73
2022/09/14 00:19:24;;;;;;;;;;;16.70;99.90;;;;;;5091800;28;20389;-72
2022/09/14 00:21:51;;;;;;;;;;;16.60;99.90;;;;;;5091826;28;20483;-72
2022/09/14 00:24:20;;;;;;;;;;;16.60;99.90;;;;;;5083119;28;19969;-73
2022/09/14 00:26:47;;;;;;;;;;;16.60;99.90;;;;;;5064869;28;19924;-73
2022/09/14 00:29:14;;;;;;;;;;;16.60;99.90;;;;;;5068339;28;19928;-72
2022/09/14 00:31:41;;;;;;;;;;;16.60;99.90;;;;;;5089224;28;19934;-72
2022/09/14 00:34:08;;;;;;;;;;;16.60;99.90;;;;;;5083472;28;20362;-73
2022/09/14 00:36:37;;;;;;;;;;;16.60;99.90;;;;;;5073864;28;20480;-72
2022/09/14 00:39:05;;;;;;;;;;;16.50;99.90;;;;;;5082552;28;19924;-73
2022/09/14 00:41:34;;;;;;;;;;;16.50;99.90;;;;;;5091617;28;19924;-73
2022/09/14 00:44:03;;;;;;;;;;;16.50;99.90;;;;;;5078751;28;19935;-73
2022/09/14 00:46:30;;;;;;;;;;;16.50;99.90;;;;;;5090778;28;19928;-73
2022/09/14 00:48:58;;;;;;;;;;;16.50;99.90;;;;;;5091438;28;19928;-73
2022/09/14 00:51:25;;;;;;;;;;;16.30;99.90;;;;;;5081389;28;19932;-73
2022/09/14 00:53:52;;;;;;;;;;;16.40;99.90;;;;;;5084527;28;19935;-73
2022/09/14 00:56:19;;;;;;;;;;;16.30;99.90;;;;;;5076973;28;19924;-72
2022/09/14 00:58:49;;;;;;;;;;;16.30;99.90;;;;;;5090778;28;20693;-73
2022/09/14 01:01:15;;;;;;;;;;;16.20;99.90;;;;;;5090848;28;19928;-73
2022/09/14 01:03:42;;;;;;;;;;;16.10;99.90;;;;;;5082299;28;20407;-72
2022/09/14 01:06:14;;;;;;;;;;;16.20;99.90;;;;;;5090630;28;19928;-73
2022/09/14 01:08:47;;;;;;;;;;;16.20;99.90;;;;;;5090186;28;20026;-73
2022/09/14 01:11:20;;;;;;;;;;;16.20;99.90;;;;;;5090395;28;19973;-72
2022/09/14 01:13:52;;;;;;;;;;;16.20;99.90;;;;;;5090555;28;19935;-72
2022/09/14 01:16:24;;;;;;;;;;;16.30;99.90;;;;;;5088609;28;19924;-72
2022/09/14 01:18:54;;;;;;;;;;;16.30;99.90;;;;;;5090126;28;19981;-72
2022/09/14 01:21:23;;;;;;;;;;;16.20;99.90;;;;;;5089355;28;20332;-73
2022/09/14 01:23:54;;;;;;;;;;;16.20;99.90;;;;;;5081677;28;19989;-73
2022/09/14 01:26:47;;;;;;;;;;;16.20;99.90;;;;;;5075663;28;19936;-72
2022/09/14 01:29:17;;;;;;;;;;;16.10;99.90;;;;;;5031257;28;19928;-73
2022/09/14 01:31:47;;;;;;;;;;;16.10;99.90;;;;;;5089007;28;19924;-73
2022/09/14 01:34:16;;;;;;;;;;;16.10;99.90;;;;;;5090256;28;19928;-73
2022/09/14 01:36:45;;;;;;;;;;;16.10;99.90;;;;;;5090365;28;19924;-72
2022/09/14 01:39:14;;;;;;;;;;;16.10;99.90;;;;;;5089728;28;19928;-73
2022/09/14 01:41:41;;;;;;;;;;;16.10;99.90;;;;;;5072455;28;19929;-72
2022/09/14 01:44:10;;;;;;;;;;;16.10;99.90;;;;;;5074374;28;19932;-73
2022/09/14 01:46:40;;;;;;;;;;;16.10;99.90;;;;;;5073714;28;19928;-72
2022/09/14 01:49:09;;;;;;;;;;;16.10;99.90;;;;;;5078540;28;20011;-72
2022/09/14 01:51:37;;;;;;;;;;;15.90;99.90;;;;;;5069437;28;20002;-72
2022/09/14 01:54:07;;;;;;;;;;;15.90;99.90;;;;;;5081314;28;19932;-72
2022/09/14 01:56:37;;;;;;;;;;;15.80;99.90;;;;;;5072831;28;20560;-73
2022/09/14 01:59:09;;;;;;;;;;;15.80;99.90;;;;;;5072331;28;19928;-72
2022/09/14 02:01:39;;;;;;;;;;;15.70;99.90;;;;;;5069369;28;19924;-73
2022/09/14 02:04:10;;;;;;;;;;;15.70;99.90;;;;;;5069212;28;19924;-73
2022/09/14 02:06:38;;;;;;;;;;;15.70;99.90;;;;;;5052668;28;20485;-73
2022/09/14 02:09:06;;;;;;;;;;;15.70;99.90;;;;;;5069562;28;19936;-72
2022/09/14 02:11:33;;;;;;;;;;;15.60;99.90;;;;;;5078600;28;19936;-73
2022/09/14 02:14:00;;;;;;;;;;;15.60;99.90;;;;;;5089589;28;19928;-73
2022/09/14 02:16:27;;;;;;;;;;;15.60;99.90;;;;;;5079206;28;19924;-73
2022/09/14 02:18:53;;;;;;;;;;;15.50;99.90;;;;;;5089896;28;20392;-73
2022/09/14 02:21:24;;;;;;;;;;;15.50;99.90;;;;;;5089365;28;19931;-73
2022/09/14 02:23:51;;;;;;;;;;;15.50;99.90;;;;;;5081240;28;19928;-72
2022/09/14 02:26:18;;;;;;;;;;;15.40;99.90;;;;;;5075354;28;19974;-73
2022/09/14 02:28:45;;;;;;;;;;;15.40;99.90;;;;;;5072865;28;19924;-73
2022/09/14 02:31:15;;;;;;;;;;;15.40;99.90;;;;;;5088125;28;19928;-73
2022/09/14 02:33:44;;;;;;;;;;;15.40;99.90;;;;;;5083044;28;19932;-73
2022/09/14 02:36:15;;;;;;;;;;;15.40;99.90;;;;;;5077696;28;19986;-73
2022/09/14 02:38:46;;;;;;;;;;;15.40;99.90;;;;;;5078723;28;19951;-72
2022/09/14 02:41:17;;;;;;;;;;;15.30;99.90;;;;;;5079521;28;19929;-72
2022/09/14 02:43:49;;;;;;;;;;;15.30;99.90;;;;;;5083661;28;19928;-73
2022/09/14 02:46:19;;;;;;;;;;;15.30;99.90;;;;;;5080302;28;19929;-73
2022/09/14 02:48:49;;;;;;;;;;;15.30;99.90;;;;;;5070139;28;20487;-74
2022/09/14 02:51:19;;;;;;;;;;;16.30;99.90;;;;;;5089041;28;19928;-73
2022/09/14 02:53:51;;;;;;;;;;;15.30;99.90;;;;;;5078136;28;19932;-73
2022/09/14 02:56:18;;;;;;;;;;;15.30;99.90;;;;;;5068700;28;20733;-73
2022/09/14 02:58:45;;;;;;;;;;;15.30;99.90;;;;;;5050498;28;19924;-72
2022/09/14 03:01:13;;;;;;;;;;;15.30;99.90;;;;;;5068107;28;19936;-73
2022/09/14 03:03:40;;;;;;;;;;;15.20;99.90;;;;;;5070791;28;19928;-73
2022/09/14 03:06:07;;;;;;;;;;;15.20;99.90;;;;;;5089545;28;19924;-73
2022/09/14 03:08:34;;;;;;;;;;;15.20;99.90;;;;;;5088645;28;20130;-73
2022/09/14 03:11:02;;;;;;;;;;;15.20;99.90;;;;;;5085269;28;19977;-73
2022/09/14 03:13:29;;;;;;;;;;;15.20;99.90;;;;;;5088561;28;19928;-73
2022/09/14 03:15:55;;;;;;;;;;;15.20;99.90;;;;;;5077559;28;19928;-72
2022/09/14 03:18:22;;;;;;;;;;;15.20;99.90;;;;;;5088328;28;19936;-73
2022/09/14 03:20:49;;;;;;;;;;;15.10;99.90;;;;;;5087947;28;19924;-73
2022/09/14 03:23:15;;;;;;;;;;;15.10;99.90;;;;;;5082931;28;19924;-73
2022/09/14 03:25:43;;;;;;;;;;;15.10;99.90;;;;;;5078653;28;19986;-72
2022/09/14 03:28:11;;;;;;;;;;;15.10;99.90;;;;;;5067590;28;20519;-73
2022/09/14 03:30:38;;;;;;;;;;;15.10;99.90;;;;;;5087312;28;19944;-72
2022/09/14 03:33:05;;;;;;;;;;;15.10;99.90;;;;;;5078850;28;19935;-73
2022/09/14 03:35:32;;;;;;;;;;;15.10;99.90;;;;;;5078505;28;19986;-72
2022/09/14 03:37:59;;;;;;;;;;;15.10;99.90;;;;;;5083550;28;20285;-71
2022/09/14 03:40:26;;;;;;;;;;;15.10;99.90;;;;;;5082563;28;20719;-72
2022/09/14 03:42:54;;;;;;;;;;;15.10;99.90;;;;;;5065687;28;20007;-72
2022/09/14 03:45:22;;;;;;;;;;;15.00;99.90;;;;;;5077733;28;19932;-72
2022/09/14 03:47:49;;;;;;;;;;;15.00;99.90;;;;;;5071978;28;20073;-72
2022/09/14 03:50:16;;;;;;;;;;;14.90;99.90;;;;;;5082114;28;19973;-72
2022/09/14 03:52:43;;;;;;;;;;;14.80;99.90;;;;;;5563896;22;19932;-72
2022/09/14 03:55:10;;;;;;;;;;;14.90;99.90;;;;;;5088316;28;20008;-72
2022/09/14 03:57:37;;;;;;;;;;;14.80;99.90;;;;;;5087913;28;19943;-73
2022/09/14 04:00:05;;;;;;;;;;;14.80;99.90;;;;;;5088422;28;19932;-71
2022/09/14 04:02:39;;;;;;;;;;;14.80;99.90;;;;;;5089061;28;19939;-73
2022/09/14 04:05:06;;;;;;;;;;;14.80;99.90;;;;;;5087247;28;19912;-72
2022/09/14 04:07:33;;;;;;;;;;;14.80;99.90;;;;;;5088029;28;20093;-72
2022/09/14 04:09:59;;;;;;;;;;;14.90;99.90;;;;;;5088311;28;19987;-72
2022/09/14 04:12:26;;;;;;;;;;;16.60;99.90;;;;;;5068778;28;19928;-72
2022/09/14 04:14:53;;;;;;;;;;;14.90;99.90;;;;;;5088180;28;19939;-72
2022/09/14 04:17:19;;;;;;;;;;;14.90;99.90;;;;;;5088278;28;19963;-72
2022/09/14 04:19:47;;;;;;;;;;;14.90;99.90;;;;;;5088040;28;19932;-71
2022/09/14 04:22:14;;;;;;;;;;;14.90;99.90;;;;;;5087854;28;20031;-70
2022/09/14 04:24:41;;;;;;;;;;;14.90;99.90;;;;;;5086914;28;20347;-71
2022/09/14 04:27:08;;;;;;;;;;;15.10;99.90;;;;;;5085578;28;19932;-70
2022/09/14 04:29:34;;;;;;;;;;;14.90;99.90;;;;;;5087228;28;20034;-72
2022/09/14 04:32:02;;;;;;;;;;;14.90;99.90;;;;;;5069212;28;19936;-71
2022/09/14 04:34:29;;;;;;;;;;;14.90;99.90;;;;;;5086252;28;19954;-70
2022/09/14 04:36:57;;;;;;;;;;;14.90;99.90;;;;;;5069774;28;19932;-70
2022/09/14 04:39:25;;;;;;;;;;;14.90;99.90;;;;;;5086890;28;20471;-71
2022/09/14 04:41:51;;;;;;;;;;;14.90;99.90;;;;;;5087291;28;19939;-71
2022/09/14 04:44:18;;;;;;;;;;;14.90;99.90;;;;;;5087230;28;19947;-71
2022/09/14 04:46:45;;;;;;;;;;;14.80;99.90;;;;;;5063281;28;20018;-72
2022/09/14 04:49:12;;;;;;;;;;;14.80;99.90;;;;;;5088388;28;19943;-72
2022/09/14 04:51:38;;;;;;;;;;;14.80;99.90;;;;;;5088227;28;19933;-71
2022/09/14 04:54:07;;;;;;;;;;;14.80;99.90;;;;;;5068552;28;19936;-69
2022/09/14 04:56:34;;;;;;;;;;;14.80;99.90;;;;;;5088239;28;20074;-69
2022/09/14 04:59:03;;;;;;;;;;;14.80;99.90;;;;;;5070308;28;21381;-70
2022/09/14 05:01:30;;;;;;;;;;;14.80;99.90;;;;;;5087538;28;20290;-70
2022/09/14 05:03:57;;;;;;;;;;;14.80;99.90;;;;;;5088016;28;19954;-71
2022/09/14 05:06:25;;;;;;;;;;;14.90;99.90;;;;;;5087990;28;19932;-70
2022/09/14 05:08:52;;;;;;;;;;;14.90;99.90;;;;;;5088653;28;19939;-71
2022/09/14 05:11:21;;;;;;;;;;;14.80;99.90;;;;;;5087655;28;19932;-71
2022/09/14 05:13:49;;;;;;;;;;;14.90;99.90;;;;;;5088206;28;19934;-71
2022/09/14 05:16:17;;;;;;;;;;;14.90;99.90;;;;;;5085778;28;19936;-72
2022/09/14 05:18:45;;;;;;;;;;;14.90;99.90;;;;;;5088335;28;19939;-72
2022/09/14 05:21:12;;;;;;;;;;;14.90;99.90;;;;;;5087926;28;19932;-70
2022/09/14 05:23:39;;;;;;;;;;;14.90;99.90;;;;;;5087455;28;19939;-70
2022/09/14 05:26:06;;;;;;;;;;;14.00;99.90;;;;;;5088035;28;19939;-71
2022/09/14 05:28:35;;;;;;;;;;;14.80;99.90;;;;;;5089513;28;19940;-71
2022/09/14 05:31:04;;;;;;;;;;;14.80;99.90;;;;;;5086826;28;19932;-71
2022/09/14 05:33:32;;;;;;;;;;;14.80;99.90;;;;;;5086476;28;20289;-70
2022/09/14 05:36:00;;;;;;;;;;;14.80;99.90;;;;;;5067362;28;19932;-71
2022/09/14 05:38:27;;;;;;;;;;;14.80;99.90;;;;;;5088202;28;19953;-71
2022/09/14 05:40:54;;;;;;;;;;;14.90;99.90;;;;;;5087233;28;19940;-71
2022/09/14 05:43:22;;;;;;;;;;;14.90;99.90;;;;;;5086347;28;19939;-69
2022/09/14 05:45:50;;;;;;;;;;;14.80;99.90;;;;;;5087354;28;20491;-68
2022/09/14 05:48:17;;;;;;;;;;;14.80;99.90;;;;;;5088188;28;19940;-68
2022/09/14 05:50:43;;;;;;;;;;;14.80;99.90;;;;;;5068997;28;20367;-68
2022/09/14 05:53:10;;;;;;;;;;;14.80;99.90;;;;;;5086629;28;19932;-68
2022/09/14 05:55:37;;;;;;;;;;;14.80;99.90;;;;;;5081011;28;20436;-69
2022/09/14 05:58:04;;;;;;;;;;;14.70;99.90;;;;;;5087841;28;19928;-68
2022/09/14 06:00:31;;;;;;;;;;;14.70;99.90;;;;;;5083738;28;19951;-69
2022/09/14 06:02:59;;;;;;;;;;;14.60;99.90;;;;;;5084158;28;20418;-71
2022/09/14 06:05:26;;;;;;;;;;;14.60;99.90;;;;;;5087047;28;19936;-69
2022/09/14 06:07:53;;;;;;;;;;;14.60;99.90;;;;;;5106680;28;19927;-69
2022/09/14 06:10:21;;;;;;;;;;;14.60;99.90;;;;;;5113039;28;19928;-69
2022/09/14 06:12:48;;;;;;;;;;;14.60;99.90;;;;;;5110803;28;20753;-69
2022/09/14 06:15:15;;;;;;;;;;;14.60;99.90;;;;;;5092613;28;20301;-69
2022/09/14 06:17:41;;;;;;;;;;;14.60;99.90;;;;;;5088074;28;19928;-69
2022/09/14 06:20:10;;;;;;;;;;;14.60;99.90;;;;;;5069675;28;20713;-69
2022/09/14 06:22:36;;;;;;;;;;;14.70;99.90;;;;;;5073504;28;19928;-69
2022/09/14 06:25:03;;;;;;;;;;;14.70;99.90;;;;;;5083718;28;19928;-69
2022/09/14 06:27:30;;;;;;;;;;;14.70;99.90;;;;;;5063775;28;20286;-70
2022/09/14 06:29:57;;;;;;;;;;;14.70;99.90;;;;;;5082154;28;20734;-69
2022/09/14 06:32:23;;;;;;;;;;;14.70;99.90;;;;;;5077012;28;19928;-70
2022/09/14 06:34:50;;;;;;;;;;;14.60;99.90;;;;;;5079585;28;19989;-70
2022/09/14 06:37:18;;;;;;;;;;;14.60;99.90;;;;;;5069191;28;19928;-70
2022/09/14 06:39:45;;;;;;;;;;;14.60;99.90;;;;;;5085009;28;19962;-70
2022/09/14 06:42:11;;;;;;;;;;;14.60;99.90;;;;;;5086237;28;19936;-69
2022/09/14 06:44:39;;;;;;;;;;;14.60;99.90;;;;;;5067317;28;19932;-69
2022/09/14 06:47:05;;;;;;;;;;;14.70;99.90;;;;;;5083533;28;19936;-69
2022/09/14 06:49:32;;;;;;;;;;;14.70;99.90;;;;;;5083854;28;19928;-69
2022/09/14 06:51:59;;;;;;;;;;;14.70;99.90;;;;;;5050423;28;20496;-70
2022/09/14 06:54:27;;;;;;;;;;;14.70;99.90;;;;;;5074789;28;19932;-69
2022/09/14 06:56:54;;;;;;;;;;;14.70;99.90;;;;;;5084068;28;19928;-69
2022/09/14 06:59:21;;;;;;;;;;;14.80;99.90;;;;;;5071058;28;20424;-69
2022/09/14 07:01:48;;;;;;;;;;;14.80;99.90;;;;;;5089036;28;19981;-69
2022/09/14 07:04:15;;;;;;;;;;;14.80;99.90;;;;;;5067980;28;19932;-69
2022/09/14 07:06:43;;;;;;;;;;;14.80;99.90;;;;;;5086247;28;20004;-69
2022/09/14 07:09:10;;;;;;;;;;;14.80;99.90;;;;;;5083880;28;19932;-68
2022/09/14 07:11:38;;;;;;;;;;;14.70;99.90;;;;;;5086068;28;19936;-68
2022/09/14 07:14:05;;;;;;;;;;;14.70;99.90;;;;;;5090151;28;19935;-70
2022/09/14 07:16:33;;;;;;;;;;;14.60;99.90;;;;;;5084284;28;19928;-69
2022/09/14 07:19:01;;;;;;;;;;;14.70;99.90;;;;;;5070389;28;19955;-69
2022/09/14 07:21:29;;;;;;;;;;;14.60;99.90;;;;;;5071869;28;19928;-68
2022/09/14 07:23:56;;;;;;;;;;;14.60;99.90;;;;;;5089010;28;19928;-68
2022/09/14 07:26:24;;;;;;;;;;;14.50;99.90;;;;;;5088872;28;19931;-69
2022/09/14 07:28:54;;;;;;;;;;;14.50;99.90;;;;;;5084517;28;20204;-68
2022/09/14 07:31:21;;;;;;;;;;;14.50;99.90;;;;;;5084720;28;19936;-68
2022/09/14 07:33:48;;;;;;;;;;;14.50;99.90;;;;;;5077284;28;20432;-68
2022/09/14 07:36:15;;;;;;;;;;;14.60;99.90;;;;;;5079024;28;19939;-68
2022/09/14 07:38:42;;;;;;;;;;;14.60;99.90;;;;;;5086178;28;20011;-69
2022/09/14 07:41:08;;;;;;;;;;;14.70;99.90;;;;;;5088283;28;19928;-68
2022/09/14 07:43:35;;;;;;;;;;;16.30;99.90;;;;;;5088915;28;20347;-69
2022/09/14 07:46:04;;;;;;;;;;;14.80;99.90;;;;;;5088558;28;19928;-68
2022/09/14 07:48:30;;;;;;;;;;;14.80;99.90;;;;;;5087719;28;19934;-69
2022/09/14 07:51:00;;;;;;;;;;;14.80;99.90;;;;;;5082355;28;19934;-69
2022/09/14 07:53:27;;;;;;;;;;;14.70;99.90;;;;;;5086284;28;19961;-68
2022/09/14 07:55:54;;;;;;;;;;;14.70;99.90;;;;;;5083735;28;19933;-68
2022/09/14 07:58:21;;;;;;;;;;;14.60;99.90;;;;;;5085180;28;20721;-68
2022/09/14 08:00:48;;;;;;;;;;;14.50;99.90;;;;;;5085510;28;20321;-68
2022/09/14 08:03:16;;;;;;;;;;;14.50;99.90;;;;;;5082468;28;19928;-69
2022/09/14 08:05:43;;;;;;;;;;;14.50;99.90;;;;;;5085358;28;20046;-69
2022/09/14 08:08:09;;;;;;;;;;;14.50;99.90;;;;;;5085113;28;19929;-69
2022/09/14 08:10:36;;;;;;;;;;;14.50;99.90;;;;;;5079575;28;20312;-68
2022/09/14 08:13:03;;;;;;;;;;;14.60;99.90;;;;;;5080974;28;20336;-68
2022/09/14 08:15:32;;;;;;;;;;;14.20;99.90;;;;;;5077439;28;19929;-72
2022/09/14 08:17:59;;;;;;;;;;;14.70;99.90;;;;;;5074791;28;20375;-69
2022/09/14 08:20:27;;;;;;;;;;;14.80;99.90;;;;;;5082889;28;19986;-69
2022/09/14 08:22:54;;;;;;;;;;;14.80;99.90;;;;;;5079484;28;19932;-69
2022/09/14 08:25:20;;;;;;;;;;;14.90;99.90;;;;;;5084375;28;20058;-69
2022/09/14 08:27:47;;;;;;;;;;;14.90;99.90;;;;;;5085123;28;19993;-69
2022/09/14 08:30:14;;;;;;;;;;;14.90;99.90;;;;;;5096736;28;20440;-69
2022/09/14 08:32:40;;;;;;;;;;;14.70;99.90;;;;;;5085356;28;20377;-69
2022/09/14 08:35:07;;;;;;;;;;;14.70;99.90;;;;;;5094796;28;19977;-69
2022/09/14 08:37:36;;;;;;;;;;;14.60;99.90;;;;;;5092794;28;19924;-69
2022/09/14 08:40:03;;;;;;;;;;;14.70;99.90;;;;;;5091898;28;19968;-70
2022/09/14 08:42:30;;;;;;;;;;;14.70;99.90;;;;;;5091360;28;20031;-69
2022/09/14 08:44:58;;;;;;;;;;;14.70;99.90;;;;;;5089680;28;20015;-68
2022/09/14 08:47:27;;;;;;;;;;;14.70;99.90;;;;;;5089374;28;20001;-68
2022/09/14 08:49:56;;;;;;;;;;;14.60;99.90;;;;;;5089178;28;19928;-68
2022/09/14 08:52:25;;;;;;;;;;;14.60;99.90;;;;;;5089573;28;20023;-68
2022/09/14 08:54:54;;;;;;;;;;;14.70;99.90;;;;;;5088540;28;19935;-68
2022/09/14 08:57:25;;;;;;;;;;;14.70;99.90;;;;;;5093336;28;19927;-68
2022/09/14 08:59:59;;;;;;;;;;;14.70;99.90;;;;;;5098048;28;19981;-69
2022/09/14 09:02:33;;;;;;;;;;;14.70;99.90;;;;;;5089768;28;20051;-68
2022/09/14 09:05:07;;;;;;;;;;;14.60;99.90;;;;;;5093609;28;19974;-68
2022/09/14 09:07:38;;;;;;;;;;;14.60;99.90;;;;;;5095275;28;19927;-68
2022/09/14 09:10:09;;;;;;;;;;;14.70;99.90;;;;;;5082990;28;19988;-68
2022/09/14 09:12:36;;;;;;;;;;;14.70;99.90;;;;;;5083372;28;19977;-68
2022/09/14 09:15:04;;;;;;;;;;;14.70;99.90;;;;;;5072732;28;19928;-68
2022/09/14 09:17:34;;;;;;;;;;;14.70;99.90;;;;;;5078461;28;19952;-68
2022/09/14 09:20:06;;;;;;;;;;;14.70;99.90;;;;;;5082785;28;20142;-68
2022/09/14 09:22:38;;;;;;;;;;;14.80;99.90;;;;;;5088358;28;20032;-67
2022/09/14 09:25:06;;;;;;;;;;;14.80;99.90;;;;;;5076310;28;19935;-68
2022/09/14 09:27:34;;;;;;;;;;;14.80;99.90;;;;;;5071633;28;19935;-68
2022/09/14 09:30:01;;;;;;;;;;;14.80;99.90;;;;;;5085708;28;20205;-68
2022/09/14 09:32:29;;;;;;;;;;;14.80;99.90;;;;;;5071917;28;20013;-68
2022/09/14 09:35:16;;;;;;;;;;;14.80;99.90;;;;;;5085705;28;19938;-68
2022/09/14 09:37:58;;;;;;;;;;;14.70;99.90;;;;;;5070924;28;19928;-68
2022/09/14 09:40:31;;;;;;;;;;;14.70;99.90;;;;;;5083185;28;19990;-66
2022/09/14 09:43:09;;;;;;;;;;;14.60;99.90;;;;;;5090097;28;20393;-68
2022/09/14 09:45:47;;;;;;;;;;;14.70;99.90;;;;;;5070954;28;19931;-68
2022/09/14 09:48:14;;;;;;;;;;;14.80;99.90;;;;;;5070515;28;19924;-67
2022/09/14 09:50:46;;;;;;;;;;;14.90;99.90;;;;;;5085696;28;20401;-68
2022/09/14 09:53:15;;;;;;;;;;;14.90;99.90;;;;;;5079911;28;19936;-68
2022/09/14 09:55:46;;;;;;;;;;;14.90;99.90;;;;;;5068118;28;19932;-69
2022/09/14 09:58:28;;;;;;;;;;;15.00;99.90;;;;;;5082000;28;20112;-68
2022/09/14 10:00:55;;;;;;;;;;;15.00;99.90;;;;;;5086852;28;19940;-69
2022/09/14 10:03:27;;;;;;;;;;;15.10;99.90;;;;;;5096092;28;20031;-68
2022/09/14 10:05:59;;;;;;;;;;;15.20;99.90;;;;;;5110146;22;19912;-78
2022/09/14 10:08:26;;;;;;;;;;;15.10;99.90;;;;;;5101729;28;19951;-80
2022/09/14 10:10:52;;;;;;;;;;;15.10;99.90;;;;;;5095312;28;19924;-79
2022/09/14 10:13:24;;;;;;;;;;;15.10;99.90;;;;;;5092006;28;19928;-79
2022/09/14 10:15:52;;;;;;;;;;;15.40;99.90;;;;;;5089926;28;19932;-79
2022/09/14 10:18:19;;;;;;;;;;;15.50;99.90;;;;;;5055562;28;19972;-79
2022/09/14 10:21:01;;;;;;;;;;;15.40;99.90;;;;;;5054974;28;19924;-79
2022/09/14 10:23:29;;;;;;;;;;;15.50;99.90;;;;;;5066720;28;19928;-79
2022/09/14 10:26:10;;;;;;;;;;;15.60;99.90;;;;;;5066073;28;19978;-78
2022/09/14 10:28:38;;;;;;;;;;;15.70;99.90;;;;;;5049111;28;19932;-78
2022/09/14 10:31:08;;;;;;;;;;;15.70;99.90;;;;;;5056569;28;19928;-78
2022/09/14 10:33:35;;;;;;;;;;;15.70;99.90;;;;;;5067022;28;20566;-79
2022/09/14 10:36:06;;;;;;;;;;;15.60;99.90;;;;;;5070189;28;19928;-78
2022/09/14 10:38:34;;;;;;;;;;;15.60;99.90;;;;;;5070250;28;20396;-79
2022/09/14 10:41:09;;;;;;;;;;;15.50;99.90;;;;;;5071585;28;19932;-78
2022/09/14 10:43:41;;;;;;;;;;;15.40;99.90;;;;;;5066127;28;20651;-78
2022/09/14 10:46:12;;;;;;;;;;;15.50;99.90;;;;;;5060829;28;19932;-78
2022/09/14 10:48:48;;;;;;;;;;;15.50;99.90;;;;;;5059870;28;20417;-79
2022/09/14 10:51:23;;;;;;;;;;;15.60;99.90;;;;;;5061739;28;20288;-78
2022/09/14 10:53:55;;;;;;;;;;;15.60;99.90;;;;;;5046127;28;19935;-78
2022/09/14 10:56:23;;;;;;;;;;;15.50;99.90;;;;;;5051065;28;19928;-78
2022/09/14 10:59:03;;;;;;;;;;;15.50;99.90;;;;;;5065940;28;20049;-79
2022/09/14 11:01:38;;;;;;;;;;;15.40;99.90;;;;;;5062666;28;19936;-79
2022/09/14 11:04:14;;;;;;;;;;;15.30;99.90;;;;;;5069937;28;19936;-79
2022/09/14 11:06:45;;;;;;;;;;;15.30;99.90;;;;;;5062503;28;20305;-77
2022/09/14 11:09:17;;;;;;;;;;;13.90;99.90;;;;;;5068248;28;19925;-77
2022/09/14 11:11:48;;;;;;;;;;;15.40;99.90;;;;;;5064249;28;19981;-77
2022/09/14 11:14:19;;;;;;;;;;;15.40;99.90;;;;;;5052505;28;20013;-78
2022/09/14 11:16:55;;;;;;;;;;;15.40;99.90;;;;;;5068536;28;19924;-78
2022/09/14 11:19:26;;;;;;;;;;;15.50;99.90;;;;;;5069735;28;19934;-78
2022/09/14 11:21:56;;;;;;;;;;;15.60;99.90;;;;;;5069571;28;19978;-79
2022/09/14 11:24:38;;;;;;;;;;;15.60;99.90;;;;;;5069515;28;19929;-79
2022/09/14 11:27:08;;;;;;;;;;;15.50;99.90;;;;;;5068572;28;19925;-79
2022/09/14 11:29:37;;;;;;;;;;;15.50;99.90;;;;;;5068815;28;20010;-78
2022/09/14 11:32:10;;;;;;;;;;;15.40;99.90;;;;;;5064506;28;19955;-78
2022/09/14 11:34:39;;;;;;;;;;;15.40;99.90;;;;;;5069290;28;20464;-79
2022/09/14 11:37:08;;;;;;;;;;;15.50;99.90;;;;;;5058622;28;20401;-78
2022/09/14 11:39:36;;;;;;;;;;;15.50;99.90;;;;;;5068366;28;19925;-78
2022/09/14 11:42:05;;;;;;;;;;;15.40;99.90;;;;;;5068717;28;19928;-78
2022/09/14 11:44:35;;;;;;;;;;;15.40;99.90;;;;;;5067929;28;20266;-79
2022/09/14 11:47:05;;;;;;;;;;;15.40;99.90;;;;;;5058100;28;19933;-79
2022/09/14 11:49:40;;;;;;;;;;;15.40;99.90;;;;;;5058010;28;19932;-78
2022/09/14 11:52:12;;;;;;;;;;;15.30;99.90;;;;;;5058909;28;20008;-78
2022/09/14 11:54:39;;;;;;;;;;;15.30;99.90;;;;;;5048805;28;19944;-78
2022/09/14 11:57:06;;;;;;;;;;;15.30;99.90;;;;;;5062143;28;19936;-77
2022/09/14 11:59:37;;;;;;;;;;;15.40;99.90;;;;;;5068432;28;19967;-77
2022/09/14 12:02:22;;;;;;;;;;;15.40;99.90;;;;;;5070496;28;20039;-77
2022/09/14 12:05:03;;;;;;;;;;;15.40;99.90;;;;;;5052280;28;19939;-77
2022/09/14 12:07:54;;;;;;;;;;;15.40;99.90;;;;;;5062702;28;20392;-77
2022/09/14 12:10:22;;;;;;;;;;;15.40;99.90;;;;;;5064138;28;19937;-77
2022/09/14 12:12:50;;;;;;;;;;;15.50;99.90;;;;;;5066184;28;20662;-79
2022/09/14 12:15:21;;;;;;;;;;;15.40;99.90;;;;;;5067052;28;19933;-78
2022/09/14 12:17:48;;;;;;;;;;;15.40;99.90;;;;;;5047900;28;19940;-78
2022/09/14 12:20:45;;;;;;;;;;;15.30;99.90;;;;;;5067234;28;19932;-78
2022/09/14 12:23:20;;;;;;;;;;;15.20;99.90;;;;;;5062255;28;19928;-78
2022/09/14 12:26:10;;;;;;;;;;;14.80;99.90;;;;;;5061541;28;19940;-78
2022/09/14 12:28:39;;;;;;;;;;;14.90;99.90;;;;;;5064177;28;19948;-77
2022/09/14 12:31:08;;;;;;;;;;;14.80;99.90;;;;;;5073993;28;19932;-77
2022/09/14 12:33:57;;;;;;;;;;;14.80;99.90;;;;;;5052322;28;19943;-77
2022/09/14 12:36:42;;;;;;;;;;;14.70;99.90;;;;;;5040412;28;19933;-77
2022/09/14 12:39:20;;;;;;;;;;;14.60;99.90;;;;;;5066553;28;19959;-77
2022/09/14 12:42:11;;;;;;;;;;;14.70;99.90;;;;;;5068865;28;19967;-77
2022/09/14 12:44:40;;;;;;;;;;;14.70;99.90;;;;;;5055067;28;20021;-78
2022/09/14 12:47:27;;;;;;;;;;;14.70;99.90;;;;;;5072420;28;20020;-78
2022/09/14 12:49:56;;;;;;;;;;;14.60;99.90;;;;;;5073261;28;19929;-78
2022/09/14 12:52:32;;;;;;;;;;;14.70;99.90;;;;;;5073394;28;20334;-77
2022/09/14 12:55:04;;;;;;;;;;;14.70;99.90;;;;;;5065558;28;19975;-78
2022/09/14 12:57:36;;;;;;;;;;;14.70;99.90;;;;;;5073396;28;19936;-78
2022/09/14 13:00:12;;;;;;;;;;;14.70;99.90;;;;;;5042719;28;20011;-78
2022/09/14 13:02:49;;;;;;;;;;;14.60;99.90;;;;;;5072889;28;20243;-78
2022/09/14 13:05:17;;;;;;;;;;;14.60;99.90;;;;;;5073737;28;19963;-78
2022/09/14 13:07:45;;;;;;;;;;;14.50;99.90;;;;;;5055019;28;19932;-78
2022/09/14 13:10:17;;;;;;;;;;;14.60;99.90;;;;;;5054591;28;20027;-78
2022/09/14 13:12:45;;;;;;;;;;;14.60;99.90;;;;;;5066925;28;20634;-78
2022/09/14 13:15:17;;;;;;;;;;;14.70;99.90;;;;;;5070380;28;19928;-78
2022/09/14 13:17:57;;;;;;;;;;;14.70;99.90;;;;;;5071529;28;19929;-77
2022/09/14 13:20:24;;;;;;;;;;;14.70;99.90;;;;;;5072572;28;19924;-77
2022/09/14 13:22:51;;;;;;;;;;;14.50;99.90;;;;;;5053108;28;19928;-78
2022/09/14 13:25:26;;;;;;;;;;;13.50;99.90;;;;;;5053499;28;20352;-77
2022/09/14 13:27:53;;;;;;;;;;;14.80;99.90;;;;;;5054283;28;19929;-78
2022/09/14 13:30:22;;;;;;;;;;;14.90;99.90;;;;;;5063536;28;20019;-78
2022/09/14 13:32:51;;;;;;;;;;;14.90;99.90;;;;;;5069733;28;20289;-78
2022/09/14 13:35:20;;;;;;;;;;;15.00;99.90;;;;;;5067691;28;20508;-78
2022/09/14 13:37:46;;;;;;;;;;;15.00;99.90;;;;;;5070513;28;19924;-78
2022/09/14 13:40:13;;;;;;;;;;;15.00;99.90;;;;;;5071197;28;19932;-77
2022/09/14 13:42:40;;;;;;;;;;;15.00;99.90;;;;;;5069118;28;20447;-77
2022/09/14 13:45:08;;;;;;;;;;;15.10;99.90;;;;;;5068572;28;19999;-78
2022/09/14 13:47:38;;;;;;;;;;;15.00;99.90;;;;;;5070863;28;19979;-78
2022/09/14 13:50:06;;;;;;;;;;;14.90;99.90;;;;;;5069020;28;19929;-78
2022/09/14 13:52:35;;;;;;;;;;;14.80;99.90;;;;;;5052711;28;19924;-78
2022/09/14 13:55:12;;;;;;;;;;;15.10;99.90;;;;;;5069877;28;20412;-78
2022/09/14 13:57:39;;;;;;;;;;;14.80;99.90;;;;;;5066690;28;19929;-78
2022/09/14 14:00:14;;;;;;;;;;;15.00;99.90;;;;;;5070196;28;19990;-78
2022/09/14 14:02:45;;;;;;;;;;;15.10;99.90;;;;;;5068577;28;20022;-78
2022/09/14 14:05:20;;;;;;;;;;;15.20;99.90;;;;;;5052637;28;20313;-78
2022/09/14 14:07:47;;;;;;;;;;;15.30;99.90;;;;;;5070399;28;19928;-79
2022/09/14 14:10:21;;;;;;;;;;;15.40;99.90;;;;;;5069427;28;19975;-78
2022/09/14 14:12:48;;;;;;;;;;;15.40;99.90;;;;;;5070225;28;19989;-78
2022/09/14 14:15:29;;;;;;;;;;;15.50;99.90;;;;;;5066620;28;20405;-78
2022/09/14 14:17:57;;;;;;;;;;;15.60;99.90;;;;;;5060209;28;19944;-77
2022/09/14 14:20:29;;;;;;;;;;;15.30;99.90;;;;;;5039456;28;20066;-77
2022/09/14 14:22:57;;;;;;;;;;;15.40;99.90;;;;;;5058644;28;19936;-78
2022/09/14 14:25:28;;;;;;;;;;;15.60;99.90;;;;;;5059757;28;19933;-78
2022/09/14 14:27:59;;;;;;;;;;;15.70;99.90;;;;;;5058810;28;20021;-78
2022/09/14 14:30:27;;;;;;;;;;;15.80;99.90;;;;;;5058063;28;20023;-78